Time,TemperatureF,DewpointF,PressureIn,WindDirection,WindDirectionDegrees,WindSpeedMPH,WindSpeedGustMPH,Humidity,HourlyPrecipIn,Conditions,Clouds,dailyrainin,SoftwareType,DateUTC
2013-05-17 00:01:00,66.1,62.1,29.89,SE,132,0.0,0.0,87,0.00,CLR,,0.00,WeatherDisplay:10.37,2013-05-17 05:01:00,
2013-05-17 00:06:00,66.0,62.0,29.89,SE,132,0.0,0.0,87,0.00,CLR,,0.00,WeatherDisplay:10.37,2013-05-17 05:06:00,
2013-05-17 00:11:00,65.9,62.2,29.89,SE,132,0.0,0.0,88,0.00,CLR,,0.00,WeatherDisplay:10.37,2013-05-17 05:11:00,
2013-05-17 00:16:00,65.8,62.1,29.89,SE,132,0.0,0.0,88,0.00,CLR,,0.00,WeatherDisplay:10.37,2013-05-17 05:16:00,
2013-05-17 00:21:00,65.8,62.1,29.90,SE,132,0.0,0.0,88,0.00,CLR,,0.00,WeatherDisplay:10.37,2013-05-17 05:21:00,
2013-05-17 00:26:00,65.8,62.1,29.90,SE,132,0.0,0.0,88,0.00,CLR,,0.00,WeatherDisplay:10.37,2013-05-17 05:26:00,
2013-05-17 00:31:00,65.7,62.0,29.90,SE,132,0.0,0.0,88,0.00,CLR,,0.00,WeatherDisplay:10.37,2013-05-17 05:31:00,
2013-05-17 00:36:00,65.7,61.7,29.90,SE,132,0.0,0.0,87,0.00,CLR,,0.00,WeatherDisplay:10.37,2013-05-17 05:36:00,
2013-05-17 00:41:00,65.7,62.0,29.90,SE,132,0.0,0.0,88,0.00,CLR,,0.00,WeatherDisplay:10.37,2013-05-17 05:41:00,
2013-05-17 00:46:00,65.8,62.1,29.90,SE,132,0.0,0.0,88,0.00,CLR,,0.00,WeatherDisplay:10.37,2013-05-17 05:46:00,
2013-05-17 00:51:00,65.7,62.0,29.90,SE,132,0.0,0.0,88,0.00,CLR,,0.00,WeatherDisplay:10.37,2013-05-17 05:51:00,
2013-05-17 00:56:00,65.7,62.0,29.90,SE,132,0.0,0.0,88,0.00,CLR,,0.00,WeatherDisplay:10.37,2013-05-17 05:56:00,
2013-05-17 01:01:00,65.7,62.0,29.90,SE,132,0.0,0.0,88,0.00,CLR,,0.00,WeatherDisplay:10.37,2013-05-17 06:01:00,
2013-05-17 01:06:00,65.7,62.0,29.90,SE,132,0.0,0.0,88,0.00,CLR,,0.00,WeatherDisplay:10.37,2013-05-17 06:06:00,
2013-05-17 01:11:00,65.7,62.4,29.90,SE,132,0.0,0.0,89,0.00,CLR,,0.00,WeatherDisplay:10.37,2013-05-17 06:11:00,
2013-05-17 01:16:00,65.6,62.3,29.90,SE,132,0.0,0.0,89,0.00,CLR,,0.00,WeatherDisplay:10.37,2013-05-17 06:16:00,
2013-05-17 01:21:00,65.5,62.2,29.90,SE,132,0.0,0.0,89,0.00,CLR,,0.00,WeatherDisplay:10.37,2013-05-17 06:21:00,
2013-05-17 01:26:00,65.4,62.1,29.90,SE,132,0.0,0.0,89,0.01,RA,,0.01,WeatherDisplay:10.37,2013-05-17 06:26:00,
2013-05-17 01:31:00,65.4,62.1,29.90,SE,132,0.0,0.0,89,0.01,RA,,0.01,WeatherDisplay:10.37,2013-05-17 06:31:00,
2013-05-17 01:36:00,65.3,62.0,29.90,SE,132,0.0,0.0,89,0.01,CLR,,0.02,WeatherDisplay:10.37,2013-05-17 06:36:00,
2013-05-17 01:41:00,65.2,62.2,29.90,SE,132,0.0,0.0,90,0.02,RA,,0.02,WeatherDisplay:10.37,2013-05-17 06:41:00,
2013-05-17 01:46:00,65.1,62.1,29.90,SE,132,0.0,0.0,90,0.02,RA,,0.02,WeatherDisplay:10.37,2013-05-17 06:46:00,
2013-05-17 01:51:00,64.9,61.9,29.89,SE,132,0.0,0.0,90,0.02,CLR,,0.02,WeatherDisplay:10.37,2013-05-17 06:51:00,
2013-05-17 01:56:00,64.9,61.9,29.90,SE,132,0.0,0.0,90,0.02,CLR,,0.02,WeatherDisplay:10.37,2013-05-17 06:56:00,
2013-05-17 02:01:00,64.8,61.8,29.90,SE,132,0.0,0.0,90,0.02,CLR,,0.02,WeatherDisplay:10.37,2013-05-17 07:01:00,
2013-05-17 02:06:00,64.7,61.7,29.89,SE,132,0.0,0.0,90,0.02,CLR,,0.02,WeatherDisplay:10.37,2013-05-17 07:06:00,
2013-05-17 02:11:00,64.6,61.9,29.89,SE,132,0.0,0.0,91,0.03,RA,,0.03,WeatherDisplay:10.37,2013-05-17 07:11:00,
2013-05-17 02:16:00,64.6,61.9,29.90,SE,132,0.0,0.0,91,0.03,RA,,0.03,WeatherDisplay:10.37,2013-05-17 07:16:00,
2013-05-17 02:21:00,64.5,61.8,29.89,SE,132,0.0,0.0,91,0.04,RA,,0.04,WeatherDisplay:10.37,2013-05-17 07:21:00,
2013-05-17 02:26:00,64.5,61.8,29.89,SE,132,0.0,0.0,91,0.03,RA,,0.04,WeatherDisplay:10.37,2013-05-17 07:26:00,
2013-05-17 02:31:00,64.5,61.8,29.89,SE,132,0.0,0.0,91,0.04,RA,,0.05,WeatherDisplay:10.37,2013-05-17 07:31:00,
2013-05-17 02:36:00,64.5,62.1,29.89,SE,132,0.0,0.0,92,0.04,RA,,0.05,WeatherDisplay:10.37,2013-05-17 07:36:00,
2013-05-17 02:41:00,64.4,62.0,29.89,SE,132,0.0,0.0,92,0.03,,,0.05,WeatherDisplay:10.37,2013-05-17 07:41:00,
2013-05-17 02:46:00,64.4,62.0,29.89,SE,132,0.0,0.0,92,0.03,CLR,,0.05,WeatherDisplay:10.37,2013-05-17 07:46:00,
2013-05-17 02:51:00,64.3,61.9,29.89,SE,132,0.0,0.0,92,0.03,CLR,,0.05,WeatherDisplay:10.37,2013-05-17 07:51:00,
2013-05-17 02:56:00,64.3,61.9,29.89,SE,132,0.0,0.0,92,0.03,CLR,,0.05,WeatherDisplay:10.37,2013-05-17 07:56:00,
2013-05-17 03:01:00,64.2,61.8,29.89,SE,132,0.0,0.0,92,0.03,CLR,,0.05,WeatherDisplay:10.37,2013-05-17 08:01:00,
2013-05-17 03:06:00,64.2,61.8,29.89,SE,132,0.0,0.0,92,0.03,CLR,,0.05,WeatherDisplay:10.37,2013-05-17 08:06:00,
2013-05-17 03:11:00,64.1,61.7,29.88,SE,132,0.0,0.0,92,0.02,CLR,,0.05,WeatherDisplay:10.37,2013-05-17 08:11:00,
2013-05-17 03:16:00,64.0,61.6,29.89,SE,132,0.0,0.0,92,0.02,CLR,,0.05,WeatherDisplay:10.37,2013-05-17 08:16:00,
2013-05-17 03:21:00,64.0,61.9,29.89,SE,132,0.0,0.0,93,0.02,RA,,0.06,WeatherDisplay:10.37,2013-05-17 08:21:00,
2013-05-17 03:26:00,64.0,61.9,29.89,SE,132,0.0,0.0,93,0.02,RA,,0.06,WeatherDisplay:10.37,2013-05-17 08:26:00,
2013-05-17 03:31:00,63.9,61.8,29.88,SE,132,0.0,0.0,93,0.01,CLR,,0.06,WeatherDisplay:10.37,2013-05-17 08:31:00,
2013-05-17 03:36:00,63.8,61.7,29.89,SE,132,0.0,0.0,93,0.01,CLR,,0.06,WeatherDisplay:10.37,2013-05-17 08:36:00,
2013-05-17 03:42:00,63.8,61.7,29.89,SE,132,0.0,0.0,93,0.01,CLR,,0.06,WeatherDisplay:10.37,2013-05-17 08:42:00,
2013-05-17 03:47:00,63.7,61.6,29.88,SE,132,0.0,0.0,93,0.01,CLR,,0.06,WeatherDisplay:10.37,2013-05-17 08:47:00,
2013-05-17 03:52:00,63.6,61.5,29.88,SE,132,0.0,0.0,93,0.01,CLR,,0.06,WeatherDisplay:10.37,2013-05-17 08:52:00,
2013-05-17 03:57:00,63.6,61.5,29.88,SE,132,0.0,0.0,93,0.01,CLR,,0.06,WeatherDisplay:10.37,2013-05-17 08:57:00,
2013-05-17 04:02:00,63.5,61.4,29.89,SE,132,0.0,0.0,93,0.01,CLR,,0.06,WeatherDisplay:10.37,2013-05-17 09:02:00,
2013-05-17 04:07:00,63.5,61.4,29.89,SE,132,0.0,0.0,93,0.01,CLR,,0.06,WeatherDisplay:10.37,2013-05-17 09:07:00,
2013-05-17 04:12:00,63.5,61.4,29.89,SE,132,0.0,0.0,93,0.01,CLR,,0.06,WeatherDisplay:10.37,2013-05-17 09:12:00,
2013-05-17 04:17:00,63.5,61.4,29.89,SE,126,0.0,0.0,93,0.01,CLR,,0.06,WeatherDisplay:10.37,2013-05-17 09:17:00,
2013-05-17 04:22:00,63.5,61.4,29.89,SE,126,0.0,0.0,93,0.00,CLR,,0.06,WeatherDisplay:10.37,2013-05-17 09:22:00,
2013-05-17 04:27:00,63.5,61.7,29.89,SE,126,0.0,0.0,94,0.00,CLR,,0.06,WeatherDisplay:10.37,2013-05-17 09:27:00,
2013-05-17 04:32:00,63.5,61.7,29.89,SE,126,0.0,0.0,94,0.00,CLR,,0.06,WeatherDisplay:10.37,2013-05-17 09:32:00,
2013-05-17 04:37:00,63.4,61.6,29.89,SE,126,0.0,0.0,94,0.00,CLR,,0.06,WeatherDisplay:10.37,2013-05-17 09:37:00,
2013-05-17 04:42:00,63.4,61.6,29.89,SE,126,0.0,0.0,94,0.01,RA,,0.07,WeatherDisplay:10.37,2013-05-17 09:42:00,
2013-05-17 04:47:00,63.4,61.6,29.89,SE,126,0.0,0.0,94,0.01,RA,,0.07,WeatherDisplay:10.37,2013-05-17 09:47:00,
2013-05-17 04:52:00,63.4,61.6,29.89,SE,126,0.0,0.0,94,0.01,,,0.07,WeatherDisplay:10.37,2013-05-17 09:52:00,
2013-05-17 04:57:00,63.3,61.5,29.89,SE,126,0.0,0.0,94,0.01,CLR,,0.07,WeatherDisplay:10.37,2013-05-17 09:57:00,
2013-05-17 05:02:00,63.3,61.5,29.89,SE,126,0.0,0.0,94,0.01,CLR,,0.07,WeatherDisplay:10.37,2013-05-17 10:02:00,
2013-05-17 05:07:00,63.3,61.5,29.89,SSE,150,0.0,0.0,94,0.01,CLR,,0.07,WeatherDisplay:10.37,2013-05-17 10:07:00,
2013-05-17 05:12:00,63.3,61.5,29.89,SSE,150,0.0,0.0,94,0.02,RA,,0.08,WeatherDisplay:10.37,2013-05-17 10:12:00,
2013-05-17 05:17:00,63.3,61.5,29.89,SSE,150,0.0,0.0,94,0.02,RA,,0.08,WeatherDisplay:10.37,2013-05-17 10:17:00,
2013-05-17 05:22:00,63.2,61.4,29.89,SSE,150,0.0,0.0,94,0.02,,,0.08,WeatherDisplay:10.37,2013-05-17 10:22:00,
2013-05-17 05:27:00,63.3,61.5,29.89,SSE,150,0.0,0.0,94,0.02,CLR,,0.08,WeatherDisplay:10.37,2013-05-17 10:27:00,
2013-05-17 05:32:00,63.2,61.4,29.89,SSE,150,0.0,0.0,94,0.02,CLR,,0.08,WeatherDisplay:10.37,2013-05-17 10:32:00,
2013-05-17 05:37:00,63.2,61.4,29.89,SSE,150,0.0,0.0,94,0.02,CLR,,0.08,WeatherDisplay:10.37,2013-05-17 10:37:00,
2013-05-17 05:42:00,63.2,61.4,29.89,SSE,150,0.0,0.0,94,0.01,CLR,,0.08,WeatherDisplay:10.37,2013-05-17 10:42:00,
2013-05-17 05:47:00,63.2,61.4,29.89,SSE,150,0.0,0.0,94,0.01,CLR,,0.08,WeatherDisplay:10.37,2013-05-17 10:47:00,
2013-05-17 05:52:00,63.2,61.4,29.89,SSE,150,0.0,0.0,94,0.01,CLR,,0.08,WeatherDisplay:10.37,2013-05-17 10:52:00,
2013-05-17 05:57:00,63.2,61.4,29.89,SSE,150,0.0,0.0,94,0.01,CLR,,0.08,WeatherDisplay:10.37,2013-05-17 10:57:00,
2013-05-17 06:02:00,63.2,61.4,29.89,SSE,150,0.0,0.0,94,0.01,CLR,,0.08,WeatherDisplay:10.37,2013-05-17 11:02:00,
2013-05-17 06:07:00,63.2,61.4,29.89,SSE,150,0.0,0.0,94,0.01,CLR,,0.08,WeatherDisplay:10.37,2013-05-17 11:07:00,
2013-05-17 06:12:00,63.3,61.8,29.89,SSE,150,0.0,0.0,95,0.00,CLR,,0.08,WeatherDisplay:10.37,2013-05-17 11:12:00,
2013-05-17 06:17:00,63.3,61.8,29.89,SSE,150,0.0,0.0,95,0.00,CLR,,0.08,WeatherDisplay:10.37,2013-05-17 11:17:00,
2013-05-17 06:22:00,63.4,61.9,29.89,SE,138,1.1,1.1,95,0.00,CLR,,0.08,WeatherDisplay:10.37,2013-05-17 11:22:00,
2013-05-17 06:27:00,63.4,61.9,29.89,SE,138,0.0,0.0,95,0.00,CLR,,0.08,WeatherDisplay:10.37,2013-05-17 11:27:00,
2013-05-17 06:32:00,63.4,61.9,29.89,ESE,115,0.0,0.0,95,0.00,CLR,,0.08,WeatherDisplay:10.37,2013-05-17 11:32:00,
2013-05-17 06:37:00,63.4,61.9,29.90,ESE,115,0.0,0.0,95,0.00,CLR,,0.08,WeatherDisplay:10.37,2013-05-17 11:37:00,
2013-05-17 06:42:00,63.4,61.9,29.90,ESE,115,0.0,0.0,95,0.00,CLR,,0.08,WeatherDisplay:10.37,2013-05-17 11:42:00,
2013-05-17 06:47:00,63.4,61.9,29.90,ESE,115,0.0,0.0,95,0.00,CLR,,0.08,WeatherDisplay:10.37,2013-05-17 11:47:00,
2013-05-17 06:52:00,63.5,62.0,29.89,ESE,113,0.0,0.0,95,0.00,CLR,,0.08,WeatherDisplay:10.37,2013-05-17 11:52:00,
2013-05-17 06:57:00,63.6,62.1,29.89,ESE,105,2.3,2.3,95,0.00,CLR,,0.08,WeatherDisplay:10.37,2013-05-17 11:57:00,
2013-05-17 07:02:00,63.6,62.1,29.89,East,98,1.1,1.1,95,0.00,CLR,,0.08,WeatherDisplay:10.37,2013-05-17 12:02:00,
2013-05-17 07:07:00,63.7,62.2,29.89,SE,126,1.1,0.0,95,0.00,CLR,,0.08,WeatherDisplay:10.37,2013-05-17 12:07:00,
2013-05-17 07:12:00,63.7,62.2,29.90,ESE,109,1.1,1.1,95,0.00,CLR,,0.08,WeatherDisplay:10.37,2013-05-17 12:12:00,
2013-05-17 07:17:00,63.9,62.4,29.90,ESE,105,3.5,3.5,95,0.00,CLR,,0.08,WeatherDisplay:10.37,2013-05-17 12:17:00,
2013-05-17 07:22:00,64.0,62.5,29.90,ESE,123,0.0,0.0,95,0.00,CLR,,0.08,WeatherDisplay:10.37,2013-05-17 12:22:00,
2013-05-17 07:27:00,64.1,62.6,29.90,East,96,1.1,1.1,95,0.00,CLR,,0.08,WeatherDisplay:10.37,2013-05-17 12:27:00,
2013-05-17 07:32:00,64.3,62.8,29.90,SE,128,2.3,2.3,95,0.00,CLR,,0.08,WeatherDisplay:10.37,2013-05-17 12:32:00,
2013-05-17 07:37:00,64.3,62.8,29.90,ESE,120,1.0,0.0,95,0.00,CLR,,0.08,WeatherDisplay:10.37,2013-05-17 12:37:00,
2013-05-17 07:42:00,64.4,62.9,29.90,SE,129,1.1,1.1,95,0.00,CLR,,0.08,WeatherDisplay:10.37,2013-05-17 12:42:00,
2013-05-17 07:47:00,64.5,63.0,29.90,SE,124,0.0,0.1,95,0.00,CLR,,0.08,WeatherDisplay:10.37,2013-05-17 12:47:00,
2013-05-17 07:52:00,64.7,63.2,29.90,ENE,63,1.1,0.0,95,0.00,CLR,,0.08,WeatherDisplay:10.37,2013-05-17 12:52:00,
2013-05-17 07:57:00,64.8,63.3,29.90,East,101,0.0,0.0,95,0.00,CLR,,0.08,WeatherDisplay:10.37,2013-05-17 12:57:00,
2013-05-17 08:02:00,64.8,63.3,29.91,East,84,1.1,1.1,95,0.00,CLR,,0.08,WeatherDisplay:10.37,2013-05-17 13:02:00,
2013-05-17 08:07:00,64.9,63.4,29.91,East,94,2.3,2.3,95,0.00,CLR,,0.08,WeatherDisplay:10.37,2013-05-17 13:07:00,
2013-05-17 08:12:00,64.9,63.4,29.91,ESE,111,4.6,4.6,95,0.00,CLR,,0.08,WeatherDisplay:10.37,2013-05-17 13:12:00,
2013-05-17 08:17:00,64.9,63.4,29.91,ESE,121,2.3,2.3,95,0.00,CLR,,0.08,WeatherDisplay:10.37,2013-05-17 13:17:00,
2013-05-17 08:22:00,64.9,63.4,29.91,ESE,109,1.0,0.0,95,0.00,CLR,,0.08,WeatherDisplay:10.37,2013-05-17 13:22:00,
2013-05-17 08:27:00,64.9,63.4,29.92,ESE,111,2.3,2.3,95,0.01,RA,,0.09,WeatherDisplay:10.37,2013-05-17 13:27:00,
2013-05-17 08:32:00,65.0,63.5,29.92,East,101,2.3,2.3,95,0.01,RA,,0.09,WeatherDisplay:10.37,2013-05-17 13:32:00,
2013-05-17 08:37:00,65.0,63.5,29.92,East,98,1.1,0.0,95,0.01,CLR,,0.09,WeatherDisplay:10.37,2013-05-17 13:37:00,
2013-05-17 08:42:00,65.0,63.5,29.92,ESE,103,0.0,0.0,95,0.01,CLR,,0.09,WeatherDisplay:10.37,2013-05-17 13:42:00,
2013-05-17 08:47:00,65.0,63.5,29.92,ESE,102,1.1,0.0,95,0.01,CLR,,0.09,WeatherDisplay:10.37,2013-05-17 13:47:00,
2013-05-17 08:52:00,65.1,63.6,29.92,ESE,102,1.1,0.0,95,0.01,CLR,,0.09,WeatherDisplay:10.37,2013-05-17 13:52:00,
2013-05-17 08:57:00,65.2,63.7,29.93,ESE,103,0.0,0.0,95,0.01,CLR,,0.09,WeatherDisplay:10.37,2013-05-17 13:57:00,
2013-05-17 09:02:00,65.3,63.8,29.93,SE,126,3.5,3.5,95,0.01,CLR,,0.09,WeatherDisplay:10.37,2013-05-17 14:02:00,
2013-05-17 09:07:00,65.4,63.9,29.92,ESE,123,3.5,3.5,95,0.01,CLR,,0.09,WeatherDisplay:10.37,2013-05-17 14:07:00,
2013-05-17 09:12:00,65.5,64.0,29.92,SE,143,2.3,2.3,95,0.01,CLR,,0.09,WeatherDisplay:10.37,2013-05-17 14:12:00,
2013-05-17 09:17:00,65.6,64.1,29.92,East,99,3.5,3.5,95,0.01,CLR,,0.09,WeatherDisplay:10.37,2013-05-17 14:17:00,
2013-05-17 09:22:00,65.9,64.4,29.91,ESE,102,2.3,2.3,95,0.01,CLR,,0.09,WeatherDisplay:10.37,2013-05-17 14:22:00,
2013-05-17 09:27:00,66.3,64.8,29.91,ESE,108,4.6,4.6,95,0.00,CLR,,0.09,WeatherDisplay:10.37,2013-05-17 14:27:00,
2013-05-17 09:32:00,66.4,64.9,29.91,East,82,3.5,3.5,95,0.00,CLR,,0.09,WeatherDisplay:10.37,2013-05-17 14:32:00,
2013-05-17 09:37:00,66.4,64.9,29.91,ESE,109,1.1,1.1,95,0.00,CLR,,0.09,WeatherDisplay:10.37,2013-05-17 14:37:00,
2013-05-17 09:42:00,66.6,64.8,29.91,East,88,6.9,6.9,94,0.00,CLR,,0.09,WeatherDisplay:10.37,2013-05-17 14:42:00,
2013-05-17 09:47:00,66.5,64.7,29.91,East,89,1.1,1.1,94,0.00,CLR,,0.09,WeatherDisplay:10.37,2013-05-17 14:47:00,
2013-05-17 09:52:00,66.6,64.8,29.91,NE,56,2.3,0.0,94,0.00,CLR,,0.09,WeatherDisplay:10.37,2013-05-17 14:52:00,
2013-05-17 09:57:00,66.7,64.9,29.91,ENE,69,2.3,2.3,94,0.00,CLR,,0.09,WeatherDisplay:10.37,2013-05-17 14:57:00,
2013-05-17 10:02:00,66.9,65.4,29.91,ESE,106,1.0,1.0,95,0.00,CLR,,0.09,WeatherDisplay:10.37,2013-05-17 15:02:00,
2013-05-17 10:07:00,67.0,65.2,29.91,NE,56,4.6,4.6,94,0.00,CLR,,0.09,WeatherDisplay:10.37,2013-05-17 15:07:00,
2013-05-17 10:12:00,67.0,65.2,29.91,East,88,1.1,1.1,94,0.00,CLR,,0.09,WeatherDisplay:10.37,2013-05-17 15:12:00,
2013-05-17 10:17:00,67.1,65.0,29.91,ESE,114,4.6,4.6,93,0.00,CLR,,0.09,WeatherDisplay:10.37,2013-05-17 15:17:00,
2013-05-17 10:22:00,67.1,65.0,29.91,East,92,1.1,1.1,93,0.00,CLR,,0.09,WeatherDisplay:10.37,2013-05-17 15:22:00,
2013-05-17 10:27:00,67.2,65.1,29.91,ESE,119,2.3,2.3,93,0.00,CLR,,0.09,WeatherDisplay:10.37,2013-05-17 15:27:00,
2013-05-17 10:32:00,67.3,65.2,29.91,NE,47,5.8,5.8,93,0.00,CLR,,0.09,WeatherDisplay:10.37,2013-05-17 15:32:00,
2013-05-17 10:37:00,67.4,65.3,29.91,ESE,111,2.3,2.3,93,0.00,CLR,,0.09,WeatherDisplay:10.37,2013-05-17 15:37:00,
2013-05-17 10:42:00,67.7,65.6,29.91,ENE,75,1.1,1.1,93,0.00,CLR,,0.09,WeatherDisplay:10.37,2013-05-17 15:42:00,
2013-05-17 10:47:00,68.0,65.9,29.91,East,98,4.6,4.6,93,0.00,CLR,,0.09,WeatherDisplay:10.37,2013-05-17 15:47:00,
2013-05-17 10:53:00,68.5,66.7,29.91,ESE,117,3.5,3.5,94,0.00,CLR,,0.09,WeatherDisplay:10.37,2013-05-17 15:53:00,
2013-05-17 10:58:00,68.6,66.5,29.91,ESE,112,3.5,3.5,93,0.00,CLR,,0.09,WeatherDisplay:10.37,2013-05-17 15:58:00,
2013-05-17 11:03:00,68.8,66.7,29.91,East,96,2.3,2.3,93,0.00,CLR,,0.09,WeatherDisplay:10.37,2013-05-17 16:03:00,
2013-05-17 11:08:00,69.0,66.9,29.91,ESE,116,1.1,1.1,93,0.00,CLR,,0.09,WeatherDisplay:10.37,2013-05-17 16:08:00,
2013-05-17 11:13:00,69.3,67.2,29.91,East,87,1.1,1.1,93,0.00,CLR,,0.09,WeatherDisplay:10.37,2013-05-17 16:13:00,
2013-05-17 11:18:00,69.5,67.4,29.91,East,98,3.5,3.5,93,0.00,CLR,,0.09,WeatherDisplay:10.37,2013-05-17 16:18:00,
2013-05-17 11:23:00,69.2,66.5,29.91,SE,146,4.6,4.6,91,0.00,CLR,,0.09,WeatherDisplay:10.37,2013-05-17 16:23:00,
2013-05-17 11:28:00,69.0,66.3,29.91,ENE,57,3.5,3.5,91,0.00,CLR,,0.09,WeatherDisplay:10.37,2013-05-17 16:28:00,
2013-05-17 11:33:00,69.1,66.7,29.91,East,84,0.0,0.0,92,0.00,CLR,,0.09,WeatherDisplay:10.37,2013-05-17 16:33:00,
2013-05-17 11:38:00,69.3,66.6,29.91,East,98,3.5,3.5,91,0.00,CLR,,0.09,WeatherDisplay:10.37,2013-05-17 16:38:00,
2013-05-17 11:43:00,69.5,67.1,29.91,ENE,71,3.5,3.5,92,0.00,CLR,,0.09,WeatherDisplay:10.37,2013-05-17 16:43:00,
2013-05-17 11:48:00,69.6,66.9,29.91,East,82,8.1,8.1,91,0.00,CLR,,0.09,WeatherDisplay:10.37,2013-05-17 16:48:00,
2013-05-17 11:53:00,69.8,67.1,29.91,SSE,161,2.0,2.0,91,0.00,CLR,,0.09,WeatherDisplay:10.37,2013-05-17 16:53:00,
2013-05-17 11:58:00,69.8,66.7,29.91,ESE,116,3.5,3.5,90,0.00,CLR,,0.09,WeatherDisplay:10.37,2013-05-17 16:58:00,
2013-05-17 12:03:00,69.9,66.8,29.91,ESE,103,3.5,3.5,90,0.00,CLR,,0.09,WeatherDisplay:10.37,2013-05-17 17:03:00,
2013-05-17 12:08:00,70.1,67.0,29.91,East,99,1.0,0.0,90,0.00,CLR,,0.09,WeatherDisplay:10.37,2013-05-17 17:08:00,
2013-05-17 12:13:00,70.1,66.4,29.91,SE,131,4.6,4.6,88,0.00,CLR,,0.09,WeatherDisplay:10.37,2013-05-17 17:13:00,
2013-05-17 12:18:00,70.1,66.7,29.91,East,89,6.9,6.9,89,0.00,CLR,,0.09,WeatherDisplay:10.37,2013-05-17 17:18:00,
2013-05-17 12:23:00,70.5,67.1,29.90,ESE,114,2.3,2.3,89,0.00,CLR,,0.09,WeatherDisplay:10.37,2013-05-17 17:23:00,
2013-05-17 12:28:00,70.7,67.0,29.90,ENE,78,2.3,2.3,88,0.00,CLR,,0.09,WeatherDisplay:10.37,2013-05-17 17:28:00,
2013-05-17 12:33:00,70.8,67.1,29.90,East,94,1.1,0.0,88,0.00,CLR,,0.09,WeatherDisplay:10.37,2013-05-17 17:33:00,
2013-05-17 12:38:00,70.9,66.8,29.90,SE,124,4.6,4.6,87,0.00,CLR,,0.09,WeatherDisplay:10.37,2013-05-17 17:38:00,
2013-05-17 12:43:00,70.9,66.8,29.90,ESE,116,3.5,3.5,87,0.00,CLR,,0.09,WeatherDisplay:10.37,2013-05-17 17:43:00,
2013-05-17 12:48:00,71.1,67.4,29.90,East,90,5.8,5.8,88,0.00,CLR,,0.09,WeatherDisplay:10.37,2013-05-17 17:48:00,
2013-05-17 12:53:00,71.2,67.1,29.90,East,91,1.1,1.1,87,0.00,CLR,,0.09,WeatherDisplay:10.37,2013-05-17 17:53:00,
2013-05-17 12:58:00,71.4,67.0,29.90,ESE,115,2.3,2.3,86,0.00,CLR,,0.09,WeatherDisplay:10.37,2013-05-17 17:58:00,
2013-05-17 13:03:00,71.4,66.7,29.90,ENE,71,4.6,4.6,85,0.00,CLR,,0.09,WeatherDisplay:10.37,2013-05-17 18:03:00,
2013-05-17 13:08:00,71.6,66.8,29.90,ESE,110,4.6,4.6,85,0.00,CLR,,0.09,WeatherDisplay:10.37,2013-05-17 18:08:00,
2013-05-17 13:13:00,71.8,67.0,29.90,ESE,112,2.3,2.3,85,0.00,CLR,,0.09,WeatherDisplay:10.37,2013-05-17 18:13:00,
2013-05-17 13:18:00,72.1,67.0,29.90,SE,124,3.5,3.5,84,0.00,CLR,,0.09,WeatherDisplay:10.37,2013-05-17 18:18:00,
2013-05-17 13:23:00,72.2,66.7,29.90,ENE,71,1.0,1.0,83,0.00,CLR,,0.09,WeatherDisplay:10.37,2013-05-17 18:23:00,
2013-05-17 13:28:00,72.0,66.6,29.90,ESE,110,3.5,3.5,83,0.00,CLR,,0.09,WeatherDisplay:10.37,2013-05-17 18:28:00,
2013-05-17 13:33:00,71.8,66.0,29.90,NE,53,3.5,3.5,82,0.00,CLR,,0.09,WeatherDisplay:10.37,2013-05-17 18:33:00,
2013-05-17 13:38:00,72.0,66.6,29.89,ESE,117,4.6,4.6,83,0.00,CLR,,0.09,WeatherDisplay:10.37,2013-05-17 18:38:00,
2013-05-17 13:43:00,72.4,67.3,29.89,East,101,1.1,1.1,84,0.00,CLR,,0.09,WeatherDisplay:10.37,2013-05-17 18:43:00,
2013-05-17 13:48:00,72.6,66.4,29.89,East,84,4.6,4.6,81,0.00,CLR,,0.09,WeatherDisplay:10.37,2013-05-17 18:48:00,
2013-05-17 13:53:00,72.8,67.0,29.89,ESE,115,3.5,3.5,82,0.00,CLR,,0.09,WeatherDisplay:10.37,2013-05-17 18:53:00,
2013-05-17 13:58:00,73.0,66.5,29.89,ESE,107,3.5,3.5,80,0.00,CLR,,0.09,WeatherDisplay:10.37,2013-05-17 18:58:00,
2013-05-17 14:03:00,73.2,67.0,29.89,East,92,2.3,2.3,81,0.00,CLR,,0.09,WeatherDisplay:10.37,2013-05-17 19:03:00,
2013-05-17 14:08:00,73.4,67.2,29.89,East,88,4.6,4.6,81,0.00,CLR,,0.09,WeatherDisplay:10.37,2013-05-17 19:08:00,
2013-05-17 14:13:00,73.2,66.7,29.89,East,82,0.0,0.2,80,0.00,CLR,,0.09,WeatherDisplay:10.37,2013-05-17 19:13:00,
2013-05-17 14:18:00,73.0,66.5,29.89,ENE,74,2.3,2.3,80,0.00,CLR,,0.09,WeatherDisplay:10.37,2013-05-17 19:18:00,
2013-05-17 14:23:00,72.9,66.7,29.89,ESE,120,5.8,5.8,81,0.00,CLR,,0.09,WeatherDisplay:10.37,2013-05-17 19:23:00,
2013-05-17 14:28:00,72.9,66.7,29.89,East,91,8.1,8.1,81,0.00,CLR,,0.09,WeatherDisplay:10.37,2013-05-17 19:28:00,
2013-05-17 14:33:00,73.1,66.9,29.89,East,86,2.3,2.3,81,0.00,CLR,,0.09,WeatherDisplay:10.37,2013-05-17 19:33:00,
2013-05-17 14:38:00,73.1,66.6,29.89,SE,129,1.1,1.1,80,0.00,CLR,,0.09,WeatherDisplay:10.37,2013-05-17 19:38:00,
2013-05-17 14:43:00,73.1,66.6,29.89,East,92,3.0,3.0,80,0.00,CLR,,0.09,WeatherDisplay:10.37,2013-05-17 19:43:00,
2013-05-17 14:48:00,72.9,66.4,29.89,East,96,3.5,3.5,80,0.00,CLR,,0.09,WeatherDisplay:10.37,2013-05-17 19:48:00,
2013-05-17 14:53:00,72.7,66.2,29.89,East,99,1.1,1.1,80,0.00,CLR,,0.09,WeatherDisplay:10.37,2013-05-17 19:53:00,
2013-05-17 14:58:00,72.6,66.4,29.89,East,90,0.0,0.0,81,0.00,CLR,,0.09,WeatherDisplay:10.37,2013-05-17 19:58:00,
2013-05-17 15:03:00,72.5,66.3,29.89,East,80,0.0,0.0,81,0.00,CLR,,0.09,WeatherDisplay:10.37,2013-05-17 20:03:00,
2013-05-17 15:08:00,72.4,65.9,29.89,East,94,2.3,2.3,80,0.00,CLR,,0.09,WeatherDisplay:10.37,2013-05-17 20:08:00,
2013-05-17 15:13:00,72.3,65.8,29.89,East,84,3.5,3.5,80,0.00,CLR,,0.09,WeatherDisplay:10.37,2013-05-17 20:13:00,
2013-05-17 15:18:00,72.6,66.4,29.89,ESE,102,3.5,3.5,81,0.00,CLR,,0.09,WeatherDisplay:10.37,2013-05-17 20:18:00,
2013-05-17 15:23:00,72.9,66.7,29.88,ESE,107,2.3,2.3,81,0.00,CLR,,0.09,WeatherDisplay:10.37,2013-05-17 20:23:00,
2013-05-17 15:28:00,73.1,66.6,29.88,East,81,1.1,0.0,80,0.00,CLR,,0.09,WeatherDisplay:10.37,2013-05-17 20:28:00,
2013-05-17 15:33:00,73.4,66.9,29.88,South,188,0.0,0.1,80,0.00,CLR,,0.09,WeatherDisplay:10.37,2013-05-17 20:33:00,
2013-05-17 15:38:00,73.4,66.9,29.88,SSE,150,0.0,0.0,80,0.00,CLR,,0.09,WeatherDisplay:10.37,2013-05-17 20:38:00,
2013-05-17 15:43:00,73.5,67.3,29.87,SE,136,0.0,1.0,81,0.00,CLR,,0.09,WeatherDisplay:10.37,2013-05-17 20:43:00,
2013-05-17 15:48:00,73.7,67.5,29.87,ESE,111,1.1,0.0,81,0.00,CLR,,0.09,WeatherDisplay:10.37,2013-05-17 20:48:00,
2013-05-17 15:53:00,73.9,67.3,29.87,ESE,121,3.0,3.0,80,0.00,CLR,,0.09,WeatherDisplay:10.37,2013-05-17 20:53:00,
2013-05-17 15:58:00,73.8,67.2,29.86,East,87,2.3,2.3,80,0.00,CLR,,0.09,WeatherDisplay:10.37,2013-05-17 20:58:00,
2013-05-17 16:03:00,73.5,66.6,29.87,East,93,0.0,0.0,79,0.00,CLR,,0.09,WeatherDisplay:10.37,2013-05-17 21:03:00,
2013-05-17 16:08:00,73.3,66.4,29.87,SE,125,2.3,2.3,79,0.00,CLR,,0.09,WeatherDisplay:10.37,2013-05-17 21:08:00,
2013-05-17 16:14:00,73.3,66.8,29.87,ESE,117,3.5,3.5,80,0.00,CLR,,0.09,WeatherDisplay:10.37,2013-05-17 21:14:00,
2013-05-17 16:18:00,73.3,66.8,29.87,East,100,1.1,0.0,80,0.00,CLR,,0.09,WeatherDisplay:10.37,2013-05-17 21:18:00,
2013-05-17 16:24:00,73.3,66.8,29.87,NW,314,0.0,0.0,80,0.00,CLR,,0.09,WeatherDisplay:10.37,2013-05-17 21:24:00,
2013-05-17 16:29:00,73.4,67.2,29.87,NW,314,0.0,0.0,81,0.00,CLR,,0.09,WeatherDisplay:10.37,2013-05-17 21:29:00,
2013-05-17 16:34:00,73.4,66.9,29.87,SSE,149,2.3,0.0,80,0.00,CLR,,0.09,WeatherDisplay:10.37,2013-05-17 21:34:00,
2013-05-17 16:39:00,73.5,66.6,29.87,East,85,0.0,0.0,79,0.00,CLR,,0.09,WeatherDisplay:10.37,2013-05-17 21:39:00,
2013-05-17 16:44:00,73.5,66.6,29.87,East,96,1.1,1.1,79,0.00,CLR,,0.09,WeatherDisplay:10.37,2013-05-17 21:44:00,
2013-05-17 16:49:00,73.5,66.6,29.87,East,90,1.1,0.0,79,0.00,CLR,,0.09,WeatherDisplay:10.37,2013-05-17 21:49:00,
2013-05-17 16:54:00,73.6,66.7,29.87,ENE,67,1.1,0.0,79,0.00,CLR,,0.09,WeatherDisplay:10.37,2013-05-17 21:54:00,
2013-05-17 16:59:00,73.8,67.2,29.87,ENE,68,0.0,0.0,80,0.00,CLR,,0.09,WeatherDisplay:10.37,2013-05-17 21:59:00,
2013-05-17 17:04:00,73.9,67.0,29.86,East,91,2.3,2.3,79,0.00,CLR,,0.09,WeatherDisplay:10.37,2013-05-17 22:04:00,
2013-05-17 17:09:00,73.9,67.0,29.86,ESE,113,0.0,0.0,79,0.00,CLR,,0.09,WeatherDisplay:10.37,2013-05-17 22:09:00,
2013-05-17 17:14:00,73.8,66.9,29.87,East,91,0.0,0.0,79,0.00,CLR,,0.09,WeatherDisplay:10.37,2013-05-17 22:14:00,
2013-05-17 17:19:00,73.9,67.3,29.86,ESE,110,1.1,0.0,80,0.00,CLR,,0.09,WeatherDisplay:10.37,2013-05-17 22:19:00,
2013-05-17 17:24:00,73.9,67.3,29.86,ESE,112,1.1,1.1,80,0.00,CLR,,0.09,WeatherDisplay:10.37,2013-05-17 22:24:00,
2013-05-17 17:29:00,73.9,67.0,29.86,East,96,0.0,0.0,79,0.00,CLR,,0.09,WeatherDisplay:10.37,2013-05-17 22:29:00,
2013-05-17 17:34:00,74.1,67.2,29.86,ESE,106,3.5,3.5,79,0.00,CLR,,0.09,WeatherDisplay:10.37,2013-05-17 22:34:00,
2013-05-17 17:39:00,74.5,67.2,29.86,ESE,103,3.5,3.5,78,0.00,CLR,,0.09,WeatherDisplay:10.37,2013-05-17 22:39:00,
2013-05-17 17:44:00,74.8,67.5,29.86,ESE,110,1.1,1.1,78,0.00,CLR,,0.09,WeatherDisplay:10.37,2013-05-17 22:44:00,
2013-05-17 17:49:00,74.7,67.4,29.86,ESE,116,0.0,0.0,78,0.00,CLR,,0.09,WeatherDisplay:10.37,2013-05-17 22:49:00,
2013-05-17 17:54:00,74.5,67.2,29.86,East,80,0.0,0.0,78,0.00,CLR,,0.09,WeatherDisplay:10.37,2013-05-17 22:54:00,
2013-05-17 17:59:00,74.4,67.1,29.86,ESE,111,0.0,0.0,78,0.00,CLR,,0.09,WeatherDisplay:10.37,2013-05-17 22:59:00,
2013-05-17 18:04:00,74.2,66.9,29.86,ESE,111,1.1,0.0,78,0.00,CLR,,0.09,WeatherDisplay:10.37,2013-05-17 23:04:00,
2013-05-17 18:09:00,74.1,66.8,29.86,East,94,3.5,3.5,78,0.00,CLR,,0.09,WeatherDisplay:10.37,2013-05-17 23:09:00,
2013-05-17 18:14:00,74.3,67.4,29.86,East,94,0.0,0.0,79,0.00,CLR,,0.09,WeatherDisplay:10.37,2013-05-17 23:14:00,
2013-05-17 18:19:00,74.3,66.6,29.86,ESE,119,3.5,3.5,77,0.00,CLR,,0.09,WeatherDisplay:10.37,2013-05-17 23:19:00,
2013-05-17 18:24:00,74.1,66.4,29.86,East,81,1.0,1.0,77,0.00,CLR,,0.09,WeatherDisplay:10.37,2013-05-17 23:24:00,
2013-05-17 18:29:00,73.8,66.5,29.86,ESE,105,0.0,0.0,78,0.00,CLR,,0.09,WeatherDisplay:10.37,2013-05-17 23:29:00,
2013-05-17 18:34:00,73.6,66.3,29.86,ESE,117,1.1,1.1,78,0.00,CLR,,0.09,WeatherDisplay:10.37,2013-05-17 23:34:00,
2013-05-17 18:39:00,73.5,66.2,29.86,ESE,119,1.1,1.1,78,0.00,CLR,,0.09,WeatherDisplay:10.37,2013-05-17 23:39:00,
2013-05-17 18:44:00,73.5,66.2,29.86,ESE,110,1.1,1.1,78,0.00,CLR,,0.09,WeatherDisplay:10.37,2013-05-17 23:44:00,
2013-05-17 18:49:00,73.5,66.6,29.86,East,89,0.0,0.0,79,0.00,CLR,,0.09,WeatherDisplay:10.37,2013-05-17 23:49:00,
2013-05-17 18:54:00,73.7,66.4,29.86,East,89,0.0,0.0,78,0.00,CLR,,0.09,WeatherDisplay:10.37,2013-05-17 23:54:00,
2013-05-17 18:59:00,73.6,66.3,29.86,ESE,115,1.1,1.1,78,0.00,CLR,,0.09,WeatherDisplay:10.37,2013-05-17 23:59:00,
2013-05-17 19:04:00,73.5,65.8,29.86,ESE,109,1.1,1.1,77,0.00,CLR,,0.09,WeatherDisplay:10.37,2013-05-18 00:04:00,
2013-05-17 19:09:00,73.4,66.1,29.86,ESE,109,0.0,0.0,78,0.00,CLR,,0.09,WeatherDisplay:10.37,2013-05-18 00:09:00,
2013-05-17 19:14:00,73.2,65.9,29.87,ESE,109,0.0,0.0,78,0.00,CLR,,0.09,WeatherDisplay:10.37,2013-05-18 00:14:00,
2013-05-17 19:19:00,72.9,66.0,29.87,ESE,109,0.0,0.0,79,0.00,CLR,,0.09,WeatherDisplay:10.37,2013-05-18 00:19:00,
2013-05-17 19:24:00,72.6,66.1,29.87,ESE,109,0.0,0.0,80,0.00,CLR,,0.09,WeatherDisplay:10.37,2013-05-18 00:24:00,
2013-05-17 19:29:00,72.4,65.9,29.87,ESE,109,0.0,0.0,80,0.00,CLR,,0.09,WeatherDisplay:10.37,2013-05-18 00:29:00,
2013-05-17 19:34:00,72.1,65.9,29.87,ESE,109,1.1,1.1,81,0.00,CLR,,0.09,WeatherDisplay:10.37,2013-05-18 00:34:00,
2013-05-17 19:39:00,71.7,65.6,29.87,ESE,109,0.0,0.0,81,0.00,CLR,,0.09,WeatherDisplay:10.37,2013-05-18 00:39:00,
2013-05-17 19:44:00,71.4,65.6,29.87,ESE,109,0.0,0.0,82,0.00,CLR,,0.09,WeatherDisplay:10.37,2013-05-18 00:44:00,
2013-05-17 19:49:00,71.2,65.4,29.87,ESE,109,0.0,0.0,82,0.00,CLR,,0.09,WeatherDisplay:10.37,2013-05-18 00:49:00,
2013-05-17 19:54:00,70.9,65.5,29.87,ESE,109,0.0,0.0,83,0.00,CLR,,0.09,WeatherDisplay:10.37,2013-05-18 00:54:00,
2013-05-17 19:59:00,70.6,65.2,29.88,ESE,109,0.0,0.0,83,0.00,CLR,,0.09,WeatherDisplay:10.37,2013-05-18 00:59:00,
2013-05-17 20:04:00,70.4,65.3,29.88,ESE,109,0.0,0.0,84,0.00,CLR,,0.09,WeatherDisplay:10.37,2013-05-18 01:04:00,
2013-05-17 20:09:00,70.2,65.5,29.88,ESE,109,0.0,0.0,85,0.00,CLR,,0.09,WeatherDisplay:10.37,2013-05-18 01:09:00,
2013-05-17 20:14:00,70.0,65.3,29.88,ESE,109,0.0,0.0,85,0.00,CLR,,0.09,WeatherDisplay:10.37,2013-05-18 01:14:00,
2013-05-17 20:19:00,69.9,65.2,29.88,ESE,109,0.0,0.0,85,0.00,CLR,,0.09,WeatherDisplay:10.37,2013-05-18 01:19:00,
2013-05-17 20:24:00,69.8,65.4,29.88,ESE,109,0.0,0.0,86,0.00,CLR,,0.09,WeatherDisplay:10.37,2013-05-18 01:24:00,
2013-05-17 20:29:00,69.7,65.3,29.88,ESE,109,0.0,0.0,86,0.00,CLR,,0.09,WeatherDisplay:10.37,2013-05-18 01:29:00,
2013-05-17 20:34:00,69.7,65.3,29.88,ESE,109,0.0,0.0,86,0.00,CLR,,0.09,WeatherDisplay:10.37,2013-05-18 01:34:00,
2013-05-17 20:39:00,69.6,65.2,29.88,ESE,109,0.0,0.0,86,0.00,CLR,,0.09,WeatherDisplay:10.37,2013-05-18 01:39:00,
2013-05-17 20:44:00,69.4,65.0,29.88,ESE,109,0.0,0.0,86,0.00,CLR,,0.09,WeatherDisplay:10.37,2013-05-18 01:44:00,
2013-05-17 20:49:00,69.4,65.4,29.89,ESE,109,0.0,0.0,87,0.00,CLR,,0.09,WeatherDisplay:10.37,2013-05-18 01:49:00,
2013-05-17 20:54:00,69.2,65.2,29.89,ESE,109,0.0,0.0,87,0.00,CLR,,0.09,WeatherDisplay:10.37,2013-05-18 01:54:00,
2013-05-17 21:00:00,69.2,65.2,29.89,ESE,109,0.0,0.0,87,0.00,CLR,,0.09,WeatherDisplay:10.37,2013-05-18 02:00:00,
2013-05-17 21:05:00,69.1,65.1,29.89,ESE,109,0.0,0.0,87,0.00,CLR,,0.09,WeatherDisplay:10.37,2013-05-18 02:05:00,
2013-05-17 21:10:00,69.0,65.0,29.89,ESE,109,0.0,0.0,87,0.00,CLR,,0.09,WeatherDisplay:10.37,2013-05-18 02:10:00,
2013-05-17 21:15:00,69.0,65.3,29.89,ESE,109,0.0,0.0,88,0.00,CLR,,0.09,WeatherDisplay:10.37,2013-05-18 02:15:00,
2013-05-17 21:20:00,68.9,65.2,29.89,ESE,109,0.0,0.0,88,0.00,CLR,,0.09,WeatherDisplay:10.37,2013-05-18 02:20:00,
2013-05-17 21:25:00,68.9,65.2,29.89,ESE,109,0.0,0.0,88,0.00,CLR,,0.09,WeatherDisplay:10.37,2013-05-18 02:25:00,
2013-05-17 21:30:00,68.8,65.1,29.89,ESE,109,0.0,0.0,88,0.00,CLR,,0.09,WeatherDisplay:10.37,2013-05-18 02:30:00,
2013-05-17 21:35:00,68.8,65.1,29.89,ESE,109,0.0,0.0,88,0.00,CLR,,0.09,WeatherDisplay:10.37,2013-05-18 02:35:00,
2013-05-17 21:40:00,68.7,65.0,29.89,ESE,109,0.0,0.0,88,0.00,CLR,,0.09,WeatherDisplay:10.37,2013-05-18 02:40:00,
2013-05-17 21:45:00,68.6,64.9,29.89,ESE,109,0.0,0.0,88,0.00,CLR,,0.09,WeatherDisplay:10.37,2013-05-18 02:45:00,
2013-05-17 21:50:00,68.5,64.8,29.90,ESE,109,0.0,0.0,88,0.00,CLR,,0.09,WeatherDisplay:10.37,2013-05-18 02:50:00,
2013-05-17 21:55:00,68.3,64.9,29.90,ESE,109,0.0,0.0,89,0.00,CLR,,0.09,WeatherDisplay:10.37,2013-05-18 02:55:00,
2013-05-17 22:00:00,68.1,64.7,29.90,ESE,109,0.0,0.0,89,0.00,CLR,,0.09,WeatherDisplay:10.37,2013-05-18 03:00:00,
2013-05-17 22:05:00,67.9,64.5,29.90,ESE,109,0.0,0.0,89,0.00,CLR,,0.09,WeatherDisplay:10.37,2013-05-18 03:05:00,
2013-05-17 22:10:00,67.7,64.7,29.90,ESE,109,0.0,0.0,90,0.00,CLR,,0.09,WeatherDisplay:10.37,2013-05-18 03:10:00,
2013-05-17 22:15:00,67.6,64.6,29.90,ESE,109,0.0,0.0,90,0.00,CLR,,0.09,WeatherDisplay:10.37,2013-05-18 03:15:00,
2013-05-17 22:20:00,67.5,64.5,29.90,ESE,109,0.0,0.0,90,0.00,CLR,,0.09,WeatherDisplay:10.37,2013-05-18 03:20:00,
2013-05-17 22:25:00,67.4,64.4,29.90,ESE,109,0.0,0.0,90,0.00,CLR,,0.09,WeatherDisplay:10.37,2013-05-18 03:25:00,
2013-05-17 22:30:00,67.3,64.3,29.90,ESE,109,0.0,0.0,90,0.00,CLR,,0.09,WeatherDisplay:10.37,2013-05-18 03:30:00,
2013-05-17 22:35:00,67.2,64.5,29.90,ESE,109,0.0,0.0,91,0.00,CLR,,0.09,WeatherDisplay:10.37,2013-05-18 03:35:00,
2013-05-17 22:40:00,67.1,64.4,29.90,ESE,109,0.0,0.0,91,0.00,CLR,,0.09,WeatherDisplay:10.37,2013-05-18 03:40:00,
2013-05-17 22:45:00,67.0,64.3,29.90,ESE,109,0.0,0.0,91,0.00,CLR,,0.09,WeatherDisplay:10.37,2013-05-18 03:45:00,
2013-05-17 22:50:00,67.0,64.3,29.90,ESE,109,0.0,0.0,91,0.00,CLR,,0.09,WeatherDisplay:10.37,2013-05-18 03:50:00,
2013-05-17 22:55:00,66.9,64.2,29.90,ESE,109,0.0,0.0,91,0.00,CLR,,0.09,WeatherDisplay:10.37,2013-05-18 03:55:00,
2013-05-17 23:00:00,66.7,64.0,29.90,ESE,109,0.0,0.0,91,0.00,CLR,,0.09,WeatherDisplay:10.37,2013-05-18 04:00:00,
2013-05-17 23:01:00,66.7,64.0,29.90,ESE,109,0.0,0.0,91,0.00,CLR,,0.09,WeatherDisplay:10.37,2013-05-18 04:01:00,
2013-05-17 23:06:00,66.6,63.9,29.90,ESE,109,0.0,0.0,91,0.00,CLR,,0.09,WeatherDisplay:10.37,2013-05-18 04:06:00,
2013-05-17 23:11:00,66.5,64.1,29.90,ESE,109,0.0,0.0,92,0.00,CLR,,0.09,WeatherDisplay:10.37,2013-05-18 04:11:00,
2013-05-17 23:16:00,66.4,64.0,29.90,ESE,109,0.0,0.0,92,0.00,CLR,,0.09,WeatherDisplay:10.37,2013-05-18 04:16:00,
2013-05-17 23:21:00,66.3,63.9,29.90,ESE,109,0.0,0.0,92,0.00,CLR,,0.09,WeatherDisplay:10.37,2013-05-18 04:21:00,
2013-05-17 23:26:00,66.2,63.8,29.90,ESE,109,0.0,0.0,92,0.00,CLR,,0.09,WeatherDisplay:10.37,2013-05-18 04:26:00,
2013-05-17 23:31:00,66.1,63.7,29.90,ESE,109,0.0,0.0,92,0.00,CLR,,0.09,WeatherDisplay:10.37,2013-05-18 04:31:00,
2013-05-17 23:36:00,66.0,63.6,29.90,ESE,109,0.0,0.0,92,0.00,CLR,,0.09,WeatherDisplay:10.37,2013-05-18 04:36:00,
2013-05-17 23:41:00,65.8,63.4,29.90,ESE,109,0.0,0.0,92,0.00,CLR,,0.09,WeatherDisplay:10.37,2013-05-18 04:41:00,
2013-05-17 23:46:00,65.6,63.2,29.90,ESE,109,0.0,0.0,92,0.00,CLR,,0.09,WeatherDisplay:10.37,2013-05-18 04:46:00,
2013-05-17 23:51:00,65.4,63.0,29.90,ESE,109,0.0,0.0,92,0.00,CLR,,0.09,WeatherDisplay:10.37,2013-05-18 04:51:00,
2013-05-17 23:56:00,65.4,63.3,29.90,ESE,109,0.0,0.0,93,0.00,CLR,,0.09,WeatherDisplay:10.37,2013-05-18 04:56:00,